Accueil
METAR-TAF:

METAR-TAF

Aéroports :

Ouagadougou, Burkina Faso

Aéroport international de Ouagadougou

latitude: 12-21N, longitude: 001-31W, altitude: 316 m

Observation

Le bulletin a été fait il y a 40 minutes, à 09:00 UTC
Vent 10 kt de est
Température 23°C
Humidité 16%
Pression 1016 hPa
Visibilité: 6000 m
poussière généralisée

METAR: DFFD 240900Z 08010KT 6000 DU NSC 23/M04 Q1016 NOSIG

Heure: 09:40 (09:40 UTC)

Prévision

Le bulletin a été fait il y a 4 heures et 40 minutes, à 05:00 UTC
Prévision valable du 24 à 06 UTC au 25 à 12 UTC
Vent 10 kt de est
Visibilité: 8000 m
Temporairement
du 24 à 06 UTC au 24 à 11 UTC
Visibilité: 3500 m
poussière généralisée
Temporairement
du 24 à 17 UTC au 24 à 20 UTC
Visibilité: 4000 m
poussière généralisée
Temporairement
du 25 à 06 UTC au 25 à 11 UTC
Visibilité: 4000 m
poussière généralisée

TAF: DFFD 240500Z 2406/2512 09010KT 8000 NSC TEMPO 2406/2411 3500 DU TEMPO 2417/2420 4000 DU TEMPO 2506/2511 4000 DU

Observations et prévisions météorologiques de plus de 4000 aéroports (messages METAR et TAF).

Les stations disponibles sont représentées par des disques jaunes et rouges sur la carte.

Passer la souris dessus pour voir le nom de la station.

Cliquer dessus pour voir les observations et prévisions météorologiques.

Pour changer de carte: cliquez sur les boutons verts avec une croix noire pour zoomer, sur le bouton vert avec un tiret pour effectuer un zoom arrière, ou sur les flèches vertes pour les cartes adjacentes.


METAR-TAF: